Time;durP1;ratioP1;P1;durP2;ratioP2;P2;SDS_P1;SDS_P2;PMS_P1;PMS_P2;Temp;Humidity;BMP_temperature;BMP_pressure;BME280_temperature;BME280_humidity;BME280_pressure;Samples;Min_cycle;Max_cycle;Signal;HPM_P1;HPM_P2
2022/11/07 00:03:05;;;;;;;13.73;6.13;;;;;;;8.93;100.00;100321.88;12773761;23;20072;-84
2022/11/07 00:08:06;;;;;;;13.88;6.28;;;;;;;9.29;100.00;100378.06;12773994;23;20013;-84
2022/11/07 00:13:06;;;;;;;8.35;5.70;;;;;;;9.43;100.00;100398.53;12773779;23;20017;-84
2022/11/07 00:18:07;;;;;;;12.32;5.70;;;;;;;9.52;100.00;100400.81;12763497;23;20382;-83
2022/11/07 00:23:07;;;;;;;10.45;5.88;;;;;;;9.47;100.00;100372.22;12748875;23;20017;-85
2022/11/07 00:28:08;;;;;;;11.02;5.57;;;;;;;9.58;100.00;100406.13;12773011;23;20013;-82
2022/11/07 00:33:08;;;;;;;8.25;5.93;;;;;;;9.64;100.00;100405.06;12749271;23;20017;-84
2022/11/07 00:38:09;;;;;;;8.63;5.45;;;;;;;9.70;100.00;100398.53;12772617;23;20021;-84
2022/11/07 00:43:10;;;;;;;13.38;5.45;;;;;;;9.78;100.00;100400.00;12772480;23;20020;-84
2022/11/07 00:48:11;;;;;;;11.27;5.05;;;;;;;9.91;100.00;100420.72;12772740;23;20017;-84
2022/11/07 00:53:11;;;;;;;10.45;5.00;;;;;;;9.87;100.00;100414.91;12781389;23;20019;-83
2022/11/07 00:58:12;;;;;;;9.32;5.40;;;;;;;9.96;100.00;100414.44;12771338;23;20040;-84
2022/11/07 01:08:32;;;;;;;11.18;5.53;;;;;;;10.05;100.00;100424.69;12775734;23;20016;-84
2022/11/07 01:13:33;;;;;;;7.18;3.95;;;;;;;10.09;100.00;100428.59;12747565;23;20477;-84
2022/11/07 01:18:33;;;;;;;24.83;5.85;;;;;;;10.13;100.00;100439.91;12771610;23;20032;-84
2022/11/07 01:23:34;;;;;;;11.10;4.55;;;;;;;10.10;100.00;100440.41;12747057;23;20017;-84
2022/11/07 01:28:35;;;;;;;14.07;5.30;;;;;;;9.79;100.00;100385.13;12722178;23;20109;-84
2022/11/07 01:33:35;;;;;;;12.75;4.88;;;;;;;9.98;100.00;100415.81;12745519;23;20087;-85
2022/11/07 01:38:38;;;;;;;11.45;4.72;;;;;;;10.07;100.00;100418.94;12747105;23;20100;-84
2022/11/07 01:43:44;;;;;;;10.75;4.20;;;;;;;10.26;100.00;100446.88;12772158;23;20047;-84
2022/11/07 01:48:52;;;;;;;9.35;4.28;;;;;;;9.99;100.00;100391.94;12772007;23;20013;-84
2022/11/07 01:53:53;;;;;;;7.93;3.97;;;;;;;10.00;100.00;100404.56;12746214;23;20025;-84
2022/11/07 01:58:54;;;;;;;11.20;4.40;;;;;;;10.30;100.00;100451.63;12771809;23;20017;-84
2022/11/07 02:03:54;;;;;;;8.07;4.00;;;;;;;10.34;100.00;100442.84;12722786;23;20045;-84
2022/11/07 02:08:55;;;;;;;9.60;4.20;;;;;;;9.92;100.00;100392.13;12745228;23;20017;-84
2022/11/07 02:13:55;;;;;;;6.38;3.83;;;;;;;10.20;100.00;100435.00;12722601;23;20018;-84
2022/11/07 02:18:56;;;;;;;9.93;4.68;;;;;;;10.24;100.00;100452.63;12798375;23;20017;-85
2022/11/07 02:24:00;;;;;;;11.27;4.22;;;;;;;10.26;100.00;100461.47;12747152;23;20009;-84
2022/11/07 02:29:01;;;;;;;10.40;5.18;;;;;;;10.24;100.00;100455.38;12748032;23;20348;-85
2022/11/07 02:34:02;;;;;;;14.25;4.65;;;;;;;10.21;100.00;100469.69;12745779;23;20024;-84
2022/11/07 02:39:02;;;;;;;11.60;5.03;;;;;;;10.20;100.00;100465.25;12770291;23;20474;-84
2022/11/07 02:44:05;;;;;;;10.32;5.07;;;;;;;10.16;100.00;100466.88;12746602;23;20020;-84
2022/11/07 02:49:05;;;;;;;10.57;5.20;;;;;;;10.01;100.00;100437.31;12746929;23;20067;-84
2022/11/07 02:54:06;;;;;;;15.13;5.07;;;;;;;10.18;100.00;100492.19;12745748;23;20103;-84
2022/11/07 02:59:07;;;;;;;21.15;6.18;;;;;;;10.14;100.00;100493.00;12768353;23;20017;-84
2022/11/07 03:04:07;;;;;;;21.15;7.10;;;;;;;10.01;100.00;100480.50;12771266;23;20048;-85
2022/11/07 03:09:08;;;;;;;14.27;5.05;;;;;;;10.00;100.00;100484.31;12747831;23;20447;-85
2022/11/07 03:14:08;;;;;;;10.40;4.53;;;;;;;10.13;100.00;100494.91;12748606;23;20017;-85
2022/11/07 03:19:09;;;;;;;11.43;5.07;;;;;;;9.95;100.00;100482.38;12799281;23;20021;-85
2022/11/07 03:24:09;;;;;;;9.15;4.50;;;;;;;9.23;100.00;100346.94;12800093;23;20087;-85
2022/11/07 03:29:10;;;;;;;17.17;5.75;;;;;;;9.35;100.00;100363.28;12799745;23;20013;-85
2022/11/07 03:34:10;;;;;;;19.60;6.38;;;;;;;9.85;100.00;100461.09;12750453;23;20353;-84
2022/11/07 03:39:11;;;;;;;14.73;5.00;;;;;;;10.01;100.00;100492.31;12799734;23;20009;-84
2022/11/07 03:44:11;;;;;;;10.38;5.70;;;;;;;9.96;100.00;100489.50;12774946;23;20021;-85
2022/11/07 03:49:11;;;;;;;17.83;6.57;;;;;;;9.90;100.00;100501.53;12797341;23;20017;-85
2022/11/07 03:54:12;;;;;;;12.73;5.47;;;;;;;9.98;100.00;100520.31;12783045;23;20025;-83
2022/11/07 03:59:12;;;;;;;11.10;6.03;;;;;;;10.00;100.00;100518.16;12773492;23;20048;-84
2022/11/07 04:04:13;;;;;;;15.73;5.88;;;;;;;9.54;100.00;100448.13;12794106;23;20019;-85
2022/11/07 04:09:14;;;;;;;23.30;6.70;;;;;;;10.02;100.00;100531.66;12797538;23;20013;-84
2022/11/07 04:19:33;;;;;;;14.77;5.15;;;;;;;9.97;100.00;100534.34;12755346;23;20033;-85
2022/11/07 04:24:33;;;;;;;13.30;5.53;;;;;;;9.98;100.00;100536.81;12748894;23;20032;-84
2022/11/07 04:29:34;;;;;;;17.50;6.25;;;;;;;9.81;100.00;100505.84;12749366;23;20009;-85
2022/11/07 04:34:34;;;;;;;15.07;6.03;;;;;;;9.59;100.00;100484.75;12787241;23;20016;-86
2022/11/07 04:39:35;;;;;;;19.23;5.80;;;;;;;9.67;100.00;100505.41;12771514;23;20008;-85
2022/11/07 04:44:35;;;;;;;13.90;5.13;;;;;;;9.84;100.00;100543.84;12747699;23;20009;-85
2022/11/07 04:49:36;;;;;;;14.93;4.45;;;;;;;9.68;100.00;100531.84;12742546;23;20021;-85
2022/11/07 04:54:36;;;;;;;11.00;4.75;;;;;;;9.46;100.00;100509.84;12795136;23;20044;-85
2022/11/07 04:59:37;;;;;;;12.38;4.78;;;;;;;9.53;100.00;100545.38;12735697;23;20024;-82
2022/11/07 05:04:38;;;;;;;16.85;6.50;;;;;;;9.49;100.00;100556.88;12795211;23;20013;-85
2022/11/07 05:09:38;;;;;;;13.55;5.30;;;;;;;9.50;100.00;100547.53;12744449;23;20379;-85
2022/11/07 05:14:39;;;;;;;12.68;5.55;;;;;;;9.45;100.00;100521.94;12746538;23;20048;-85
2022/11/07 05:19:42;;;;;;;14.23;6.07;;;;;;;9.44;100.00;100496.34;12790420;23;20012;-85
2022/11/07 05:24:42;;;;;;;16.10;7.13;;;;;;;9.80;100.00;100562.78;12743754;23;20039;-85
2022/11/07 05:29:42;;;;;;;20.48;5.70;;;;;;;9.84;100.00;100579.59;12770302;23;20013;-85
2022/11/07 05:34:43;;;;;;;20.42;7.00;;;;;;;9.85;100.00;100582.06;12771467;23;20020;-84
2022/11/07 05:39:43;;;;;;;15.60;5.78;;;;;;;9.92;100.00;100575.53;12720237;23;20530;-84
2022/11/07 05:44:44;;;;;;;13.63;5.20;;;;;;;9.02;100.00;100447.50;12769341;23;20020;-84
2022/11/07 05:49:44;;;;;;;14.95;5.30;;;;;;;9.94;100.00;100587.09;12773974;23;20013;-86
2022/11/07 05:54:45;;;;;;;12.55;5.80;;;;;;;9.90;100.00;100584.88;12709299;23;20029;-85
2022/11/07 05:59:46;;;;;;;15.52;6.72;;;;;;;9.74;100.00;100552.81;12768288;23;20049;-85
2022/11/07 06:04:46;;;;;;;12.35;5.65;;;;;;;9.66;100.00;100534.84;12744536;23;20023;-85
2022/11/07 06:09:47;;;;;;;18.98;5.90;;;;;;;9.92;100.00;100581.84;12801763;23;20013;-85
2022/11/07 06:14:47;;;;;;;10.48;6.55;;;;;;;9.88;100.00;100586.22;12768079;23;20032;-85
2022/11/07 06:19:48;;;;;;;16.15;5.82;;;;;;;9.53;100.00;100537.97;12744773;23;20013;-85
2022/11/07 06:24:50;;;;;;;16.08;6.90;;;;;;;8.89;100.00;100406.69;12722214;23;20010;-85
2022/11/07 06:29:51;;;;;;;14.20;5.97;;;;;;;10.11;100.00;100601.63;12775632;23;20016;-86
2022/11/07 06:34:51;;;;;;;10.63;4.82;;;;;;;9.76;100.00;100547.88;12744303;23;20071;-85
2022/11/07 06:39:52;;;;;;;19.88;5.70;;;;;;;9.81;100.00;100596.59;12737454;23;20031;-85
2022/11/07 06:44:52;;;;;;;12.60;5.72;;;;;;;9.78;100.00;100589.69;12763890;23;20526;-85
2022/11/07 06:49:53;;;;;;;14.40;5.88;;;;;;;9.52;100.00;100540.97;12717731;23;20020;-85
2022/11/07 06:54:53;;;;;;;15.63;5.70;;;;;;;9.73;100.00;100584.09;12772184;23;20080;-85
2022/11/07 06:59:54;;;;;;;16.27;6.05;;;;;;;10.01;100.00;100623.50;12745875;23;20044;-85
2022/11/07 07:04:54;;;;;;;13.88;5.20;;;;;;;10.04;100.00;100628.47;12770317;23;20067;-84
2022/11/07 07:09:55;;;;;;;11.75;5.93;;;;;;;10.05;100.00;100641.16;12748303;23;20020;-86
2022/11/07 07:14:55;;;;;;;18.85;5.63;;;;;;;10.09;100.00;100665.16;12780821;23;20084;-85
2022/11/07 07:19:56;;;;;;;15.77;6.63;;;;;;;10.02;100.00;100652.66;12797378;23;20044;-85
2022/11/07 07:24:56;;;;;;;17.42;7.75;;;;;;;10.08;100.00;100659.88;12746418;23;20017;-86
2022/11/07 07:29:57;;;;;;;26.50;9.35;;;;;;;9.09;100.00;100514.06;12771847;23;20028;-86
2022/11/07 07:34:57;;;;;;;19.42;8.75;;;;;;;10.04;100.00;100676.06;12771364;23;20017;-86
2022/11/07 07:39:58;;;;;;;19.38;9.63;;;;;;;9.65;100.00;100598.31;12747958;23;20063;-87
2022/11/07 07:44:58;;;;;;;22.08;10.65;;;;;;;9.68;100.00;100609.63;12746644;23;20044;-86
2022/11/07 07:49:59;;;;;;;21.45;10.43;;;;;;;9.63;100.00;100608.72;12758310;23;20013;-86
2022/11/07 07:54:59;;;;;;;28.00;11.43;;;;;;;9.70;100.00;100617.63;12723217;23;20060;-86
2022/11/07 08:00:00;;;;;;;29.05;9.77;;;;;;;9.66;100.00;100613.72;12747291;23;20028;-86
2022/11/07 08:05:00;;;;;;;21.45;9.43;;;;;;;10.09;100.00;100689.91;12747350;23;20154;-86
2022/11/07 08:10:01;;;;;;;31.85;9.68;;;;;;;9.70;100.00;100618.44;12751984;23;20013;-87
2022/11/07 08:15:01;;;;;;;26.35;9.52;;;;;;;10.00;100.00;100654.84;12749303;23;20032;-86
2022/11/07 08:20:02;;;;;;;22.42;8.68;;;;;;;10.26;100.00;100702.75;12798691;23;20008;-86
2022/11/07 08:25:03;;;;;;;23.67;9.27;;;;;;;10.27;100.00;100697.00;12747247;23;20021;-85
2022/11/07 08:30:05;;;;;;;20.52;8.52;;;;;;;10.32;100.00;100695.44;12747777;23;20052;-86
2022/11/07 08:35:06;;;;;;;24.35;9.18;;;;;;;10.37;100.00;100701.00;12774851;23;20495;-87
2022/11/07 08:40:07;;;;;;;22.90;8.13;;;;;;;9.15;100.00;100495.72;12727574;23;20024;-86
2022/11/07 08:45:08;;;;;;;23.98;8.02;;;;;;;10.03;100.00;100637.84;12795679;23;20017;-86
2022/11/07 08:50:08;;;;;;;18.75;7.82;;;;;;;10.28;100.00;100675.81;12721026;23;20044;-87
2022/11/07 08:55:09;;;;;;;20.25;7.75;;;;;;;10.44;100.00;100699.72;12796461;23;20021;-85
2022/11/07 09:00:10;;;;;;;23.58;7.68;;;;;;;9.92;100.00;100608.53;12833248;23;20104;-87
2022/11/07 09:05:11;;;;;;;16.67;6.22;;;;;;;10.68;100.00;100718.69;12807281;23;20023;-86
2022/11/07 09:10:11;;;;;;;27.70;7.32;;;;;;;10.70;100.00;100699.97;12767416;23;20015;-87
2022/11/07 09:15:12;;;;;;;24.10;6.72;;;;;;;10.68;100.00;100685.63;12822940;23;20021;-86
2022/11/07 09:20:14;;;;;;;17.20;6.32;;;;;;;10.38;100.00;100626.44;12782031;23;20012;-85
2022/11/07 09:25:15;;;;;;;19.33;5.97;;;;;;;10.99;100.00;100706.03;12790959;23;20443;-84
2022/11/07 09:30:15;;;;;;;15.55;6.45;;;;;;;11.05;100.00;100713.25;12792387;23;20351;-86
2022/11/07 09:35:16;;;;;;;15.95;5.57;;;;;;;11.10;100.00;100729.84;12808317;23;20027;-87
2022/11/07 09:40:23;;;;;;;11.65;4.93;;;;;;;11.15;100.00;100720.78;12756165;23;20013;-86
2022/11/07 09:45:23;;;;;;;18.98;4.75;;;;;;;11.23;100.00;100723.06;12825787;23;20044;-84
2022/11/07 09:50:28;;;;;;;14.77;4.70;;;;;;;11.19;100.00;100708.16;12743870;23;20026;-84
2022/11/07 09:55:37;;;;;;;17.25;5.07;;;;;;;11.11;100.00;100706.69;12761338;23;20089;-84
2022/11/07 10:00:38;;;;;;;16.90;6.25;;;;;;;11.28;100.00;100730.53;12788814;23;20009;-85
2022/11/07 10:06:07;;;;;;;19.13;5.95;;;;;;;11.39;100.00;100734.22;12692346;23;20016;-85
2022/11/07 10:11:12;;;;;;;14.13;5.05;;;;;;;11.44;100.00;100735.09;12782920;23;20025;-85
2022/11/07 10:16:46;;;;;;;17.77;6.00;;;;;;;11.57;100.00;100744.00;12802610;23;20023;-84
2022/11/07 10:22:16;;;;;;;15.90;5.30;;;;;;;11.51;100.00;100752.25;12828731;23;20036;-85
2022/11/07 10:27:16;;;;;;;14.38;4.60;;;;;;;11.58;100.00;100759.47;12815629;23;20028;-85
2022/11/07 10:32:27;;;;;;;12.50;4.15;;;;;;;11.53;100.00;100732.66;12790750;23;20031;-86
2022/11/07 10:37:27;;;;;;;20.15;4.53;;;;;;;11.70;100.00;100771.16;12795804;23;20023;-86
2022/11/07 10:42:29;;;;;;;15.93;4.28;;;;;;;10.79;100.00;100620.47;12783093;23;20457;-86
2022/11/07 10:47:29;;;;;;;17.20;5.53;;;;;;;11.40;100.00;100717.41;12806975;23;20012;-87
2022/11/07 10:52:30;;;;;;;17.90;4.15;;;;;;;11.78;100.00;100783.59;12769639;23;20021;-87
2022/11/07 10:57:33;;;;;;;15.05;4.38;;;;;;;11.71;100.00;100770.03;12782791;23;20013;-86
2022/11/07 11:02:46;;;;;;;16.23;5.70;;;;;;;11.71;100.00;100759.00;12721555;23;20450;-86
2022/11/07 11:07:46;;;;;;;10.13;4.07;;;;;;;11.93;100.00;100778.22;12722499;23;20051;-86
2022/11/07 11:12:47;;;;;;;22.95;6.03;;;;;;;11.86;100.00;100774.81;12696959;23;20018;-84
2022/11/07 11:18:06;;;;;;;14.45;4.38;;;;;;;11.62;100.00;100724.75;12744130;23;20021;-84
2022/11/07 11:23:18;;;;;;;16.67;4.00;;;;;;;11.94;100.00;100766.09;12720796;23;20028;-85
2022/11/07 11:28:24;;;;;;;17.67;3.85;;;;;;;11.72;100.00;100719.31;12744800;23;20025;-86
2022/11/07 11:33:28;;;;;;;14.35;4.95;;;;;;;11.90;100.00;100734.59;12720576;23;20009;-85
2022/11/07 11:38:38;;;;;;;11.18;4.47;;;;;;;12.05;100.00;100747.66;12750315;23;20017;-85
2022/11/07 11:43:50;;;;;;;16.20;3.80;;;;;;;12.38;100.00;100770.47;12749776;23;20013;-85
2022/11/07 11:48:55;;;;;;;21.58;4.10;;;;;;;12.50;100.00;100780.19;12749302;23;20013;-84
2022/11/07 11:53:55;;;;;;;14.75;3.47;;;;;;;12.44;100.00;100770.25;12734925;23;20032;-85
2022/11/07 11:59:11;;;;;;;13.68;4.07;;;;;;;12.59;100.00;100788.78;12765444;23;20031;-86
2022/11/07 12:04:34;;;;;;;8.98;3.15;;;;;;;12.59;100.00;100780.50;12790695;23;20024;-84
2022/11/07 12:09:47;;;;;;;12.00;3.95;;;;;;;12.54;100.00;100786.00;12808101;23;20013;-85
2022/11/07 12:15:09;;;;;;;13.63;3.47;;;;;;;12.59;100.00;100794.31;12785215;23;20415;-85
2022/11/07 12:20:31;;;;;;;12.15;3.20;;;;;;;12.68;100.00;100792.69;12807973;23;20021;-84
2022/11/07 12:25:52;;;;;;;11.23;3.10;;;;;;;12.82;100.00;100787.50;12806353;23;20057;-85
2022/11/07 12:31:21;;;;;;;16.88;3.53;;;;;;;12.99;100.00;100754.09;12789889;23;20021;-86
2022/11/07 12:36:38;;;;;;;11.98;3.20;;;;;;;13.46;100.00;100780.72;12780168;23;20064;-84
2022/11/07 12:42:28;;;;;;;6.95;2.58;;;;;;;13.51;100.00;100783.47;12818515;23;20017;-85
2022/11/07 12:47:58;;;;;;;14.35;2.88;;;;;;;13.61;100.00;100787.38;12750550;23;20027;-80
2022/11/07 12:53:17;;;;;;;9.63;2.95;;;;;;;13.64;100.00;100764.66;12719391;23;20099;-81
2022/11/07 12:58:25;;;;;;;9.20;2.45;;;;;;;13.33;100.00;100742.53;12814370;23;20032;-81
2022/11/07 13:03:50;;;;;;;7.60;2.75;;;;;;;13.64;100.00;100764.66;12680549;23;20029;-82
2022/11/07 13:09:26;;;;;;;12.60;2.55;;;;;;;13.90;100.00;100751.66;12741107;23;20375;-80
2022/11/07 13:14:39;;;;;;;8.15;2.60;;;;;;;14.18;100.00;100758.50;12764714;23;20062;-81
2022/11/07 13:19:44;;;;;;;8.68;2.35;;;;;;;14.11;100.00;100763.50;12685952;23;20032;-81
2022/11/07 13:25:04;;;;;;;11.80;3.38;;;;;;;14.39;100.00;100759.28;12634913;23;20024;-82
2022/11/07 13:30:34;;;;;;;11.82;2.22;;;;;;;14.57;100.00;100755.03;12745594;23;20017;-83
2022/11/07 13:35:37;;;;;;;9.30;3.08;;;;;;;14.18;100.00;100758.50;12580737;23;20033;-81
2022/11/07 13:40:43;;;;;;;11.48;2.92;;;;;;;13.79;100.00;100761.91;12530145;23;20011;-81
2022/11/07 13:46:03;;;;;;;12.65;2.85;;;;;;;12.94;100.00;100671.22;12478383;23;20045;-82
2022/11/07 13:51:03;;;;;;;10.15;3.45;;;;;;;13.47;100.00;100770.50;12498440;23;20031;-81
2022/11/07 13:56:39;;;;;;;8.20;3.40;;;;;;;13.34;100.00;100779.34;12576750;23;20029;-83
2022/11/07 14:01:42;;;;;;;10.95;3.58;;;;;;;12.87;100.00;100725.88;12563365;23;20021;-83
2022/11/07 14:06:44;;;;;;;12.25;3.38;;;;;;;13.17;100.00;100804.41;12710869;23;20076;-84
2022/11/07 14:11:45;;;;;;;10.95;3.25;;;;;;;12.28;100.00;100660.84;12771099;23;20013;-83
2022/11/07 14:16:47;;;;;;;10.95;3.90;;;;;;;13.11;100.00;100779.56;12743811;23;20053;-83
2022/11/07 14:21:48;;;;;;;17.15;4.53;;;;;;;13.08;100.00;100774.59;12780032;23;20024;-83
2022/11/07 14:27:10;;;;;;;11.73;4.03;;;;;;;13.02;100.00;100795.03;12721792;23;20116;-82
2022/11/07 14:32:14;;;;;;;11.02;4.65;;;;;;;12.91;100.00;100794.13;12717237;23;20019;-83
2022/11/07 14:37:18;;;;;;;10.55;4.15;;;;;;;12.88;100.00;100791.13;12784829;23;20013;-83
2022/11/07 14:42:22;;;;;;;18.27;5.25;;;;;;;12.83;100.00;100797.44;12739878;23;20009;-83
2022/11/07 14:47:28;;;;;;;16.30;4.45;;;;;;;12.71;100.00;100792.16;12734271;23;20021;-82
2022/11/07 14:52:32;;;;;;;16.23;5.10;;;;;;;12.83;100.00;100791.91;12771889;23;20604;-84
2022/11/07 14:57:37;;;;;;;14.73;4.90;;;;;;;12.76;100.00;100793.28;12737678;23;20410;-81
2022/11/07 15:02:38;;;;;;;17.05;4.32;;;;;;;12.55;100.00;100765.59;12727327;23;20112;-82
2022/11/07 15:07:45;;;;;;;12.85;4.22;;;;;;;12.75;100.00;100799.91;12765531;23;20032;-82
2022/11/07 15:12:48;;;;;;;17.67;4.88;;;;;;;12.35;100.00;100757.22;12712895;23;20013;-82
2022/11/07 15:17:55;;;;;;;14.75;4.65;;;;;;;12.69;100.00;100810.94;12737900;23;20017;-81
2022/11/07 15:22:59;;;;;;;14.77;4.70;;;;;;;12.66;100.00;100811.47;12688591;23;20029;-81
2022/11/07 15:28:18;;;;;;;17.48;5.75;;;;;;;12.68;100.00;100803.72;12724917;23;20367;-81
2022/11/07 15:33:18;;;;;;;13.20;4.70;;;;;;;12.70;100.00;100817.28;12797106;23;20403;-81
2022/11/07 15:38:21;;;;;;;13.50;4.70;;;;;;;12.31;100.00;100749.44;12743916;23;20017;-81
2022/11/07 15:43:22;;;;;;;16.75;5.80;;;;;;;12.42;100.00;100783.47;12775016;23;20017;-83
2022/11/07 15:48:25;;;;;;;18.15;5.10;;;;;;;12.51;100.00;100797.59;12750636;23;20017;-83
2022/11/07 15:53:27;;;;;;;15.07;5.10;;;;;;;12.60;100.00;100804.25;12750449;23;20080;-83
2022/11/07 15:58:28;;;;;;;14.85;4.65;;;;;;;11.71;100.00;100685.38;12796788;23;20017;-83
2022/11/07 16:03:28;;;;;;;19.77;6.63;;;;;;;12.59;100.00;100816.41;12700357;23;20021;-82
2022/11/07 16:08:29;;;;;;;11.52;5.00;;;;;;;12.06;100.00;100727.25;12748500;23;20013;-83
2022/11/07 16:13:29;;;;;;;21.23;4.90;;;;;;;12.54;100.00;100813.63;12723453;23;20009;-83
2022/11/07 16:18:37;;;;;;;15.95;4.72;;;;;;;12.48;100.00;100800.88;12746120;23;20360;-80
2022/11/07 16:23:38;;;;;;;15.32;5.30;;;;;;;12.40;100.00;100816.06;12682730;23;20017;-82
2022/11/07 16:28:39;;;;;;;14.05;5.50;;;;;;;12.39;100.00;100830.94;12701423;23;20017;-81
2022/11/07 16:33:40;;;;;;;17.08;4.85;;;;;;;12.27;100.00;100830.31;12643624;23;20017;-80
2022/11/07 16:38:41;;;;;;;21.17;5.80;;;;;;;12.09;100.00;100804.84;12709271;23;20017;-81
2022/11/07 16:43:41;;;;;;;18.23;4.95;;;;;;;11.84;100.00;100786.13;12749291;23;20009;-81
2022/11/07 16:48:42;;;;;;;24.05;5.90;;;;;;;12.03;100.00;100829.88;12747361;23;20017;-81
2022/11/07 16:53:42;;;;;;;18.48;5.07;;;;;;;12.06;100.00;100852.25;12725409;23;20013;-84
2022/11/07 16:58:43;;;;;;;25.80;5.70;;;;;;;12.04;100.00;100854.44;12726165;23;20048;-83
2022/11/07 17:03:43;;;;;;;18.98;5.45;;;;;;;11.97;100.00;100856.63;12798044;23;20017;-83
2022/11/07 17:08:44;;;;;;;24.27;5.93;;;;;;;11.67;100.00;100808.34;12772913;23;20017;-84
2022/11/07 17:13:44;;;;;;;18.77;6.05;;;;;;;11.85;100.00;100844.91;12773436;23;20064;-83
2022/11/07 17:18:45;;;;;;;18.20;5.88;;;;;;;11.80;100.00;100853.13;12772318;23;20029;-83
2022/11/07 17:23:46;;;;;;;20.75;6.20;;;;;;;11.79;100.00;100857.00;12795940;23;20020;-84
2022/11/07 17:28:47;;;;;;;24.00;6.70;;;;;;;11.74;100.00;100852.25;12723860;23;20005;-83
2022/11/07 17:33:48;;;;;;;13.05;5.10;;;;;;;11.72;100.00;100854.44;12748290;23;20028;-84
2022/11/07 17:38:50;;;;;;;18.83;5.93;;;;;;;11.51;100.00;100828.59;12791458;23;20043;-85
2022/11/07 17:43:50;;;;;;;27.92;6.63;;;;;;;11.34;100.00;100806.66;12721974;23;20017;-84
2022/11/07 17:48:55;;;;;;;19.70;5.57;;;;;;;11.61;100.00;100845.22;12746209;23;20020;-85
2022/11/07 17:53:56;;;;;;;18.83;5.65;;;;;;;11.36;100.00;100804.47;12734471;23;20009;-84
2022/11/07 17:59:04;;;;;;;22.77;5.85;;;;;;;11.64;100.00;100854.94;12774334;23;20016;-85
2022/11/07 18:04:06;;;;;;;16.50;6.40;;;;;;;11.63;100.00;100853.25;12720131;23;20020;-84
2022/11/07 18:09:07;;;;;;;18.30;5.50;;;;;;;11.28;100.00;100802.19;12792112;23;20048;-84
2022/11/07 18:14:08;;;;;;;18.55;6.47;;;;;;;11.57;100.00;100844.09;12770142;23;20441;-83
2022/11/07 18:19:09;;;;;;;17.23;5.28;;;;;;;11.65;100.00;100845.56;12717897;23;20024;-85
2022/11/07 18:24:09;;;;;;;15.77;5.63;;;;;;;11.43;100.00;100807.88;12718163;23;20401;-84
2022/11/07 18:29:11;;;;;;;12.80;5.53;;;;;;;11.59;100.00;100847.41;12706953;23;20016;-85
2022/11/07 18:34:12;;;;;;;16.60;5.97;;;;;;;11.73;100.00;100855.28;12735249;23;20027;-83
2022/11/07 18:39:15;;;;;;;20.90;6.25;;;;;;;11.67;100.00;100848.88;12752486;23;20321;-82
2022/11/07 18:44:15;;;;;;;17.98;6.63;;;;;;;11.78;100.00;100858.91;12750140;23;20100;-82
2022/11/07 18:49:17;;;;;;;20.90;6.70;;;;;;;11.58;100.00;100822.88;12684821;23;20343;-82
2022/11/07 18:54:18;;;;;;;21.58;6.57;;;;;;;11.55;100.00;100823.41;12731151;23;20311;-82
2022/11/07 18:59:19;;;;;;;22.48;6.68;;;;;;;11.72;100.00;100851.69;12780871;23;20017;-84
2022/11/07 19:04:20;;;;;;;19.48;6.25;;;;;;;11.79;100.00;100857.81;12773016;23;20478;-82
2022/11/07 19:09:22;;;;;;;17.25;6.45;;;;;;;11.79;100.00;100857.81;12802905;23;20024;-80
2022/11/07 19:14:23;;;;;;;18.27;7.75;;;;;;;11.49;100.00;100814.25;12772460;23;20044;-84
2022/11/07 19:19:24;;;;;;;24.15;6.70;;;;;;;11.68;100.00;100834.00;12799037;23;20029;-83
2022/11/07 19:24:24;;;;;;;24.55;7.32;;;;;;;11.78;100.00;100845.13;12774817;23;20020;-82
2022/11/07 19:29:25;;;;;;;20.00;6.45;;;;;;;11.64;100.00;100827.34;12774208;23;20063;-83
2022/11/07 19:34:25;;;;;;;38.92;7.65;;;;;;;11.79;100.00;100849.53;12725468;23;20021;-83
2022/11/07 19:39:26;;;;;;;18.65;6.30;;;;;;;11.63;100.00;100820.16;12723960;23;20072;-84
2022/11/07 19:44:29;;;;;;;23.70;5.95;;;;;;;11.82;100.00;100857.28;12707895;23;20017;-82
2022/11/07 19:49:30;;;;;;;23.98;6.03;;;;;;;11.62;100.00;100811.06;12740509;23;20013;-83
2022/11/07 19:54:30;;;;;;;20.45;4.85;;;;;;;11.82;100.00;100835.19;12742299;23;20021;-82
2022/11/07 19:59:32;;;;;;;20.77;5.10;;;;;;;11.74;100.00;100815.56;12774352;23;20067;-84
2022/11/07 20:04:33;;;;;;;19.13;5.25;;;;;;;11.96;100.00;100845.84;12800482;23;20017;-81
2022/11/07 20:09:33;;;;;;;17.75;5.00;;;;;;;11.90;100.00;100843.03;12748812;23;20260;-81
2022/11/07 20:14:34;;;;;;;14.93;4.00;;;;;;;12.03;100.00;100854.72;12747106;23;20068;-82
2022/11/07 20:19:36;;;;;;;18.15;4.43;;;;;;;11.89;100.00;100835.84;12747270;23;20096;-82
2022/11/07 20:24:37;;;;;;;18.60;4.32;;;;;;;12.06;100.00;100845.91;12773764;23;20044;-81
2022/11/07 20:29:37;;;;;;;17.65;4.15;;;;;;;11.81;100.00;100783.91;12770864;23;20024;-81
2022/11/07 20:34:38;;;;;;;16.15;3.65;;;;;;;12.12;100.00;100844.84;12798627;23;20025;-82
2022/11/07 20:39:43;;;;;;;14.68;4.65;;;;;;;12.10;100.00;100836.00;12748238;23;20013;-82
2022/11/07 20:44:43;;;;;;;10.35;3.55;;;;;;;11.90;100.00;100806.34;12799185;23;20021;-80
2022/11/07 20:49:44;;;;;;;12.85;3.70;;;;;;;12.25;100.00;100863.69;12747645;23;20013;-81
2022/11/07 20:54:44;;;;;;;15.43;4.20;;;;;;;12.21;100.00;100843.25;12796621;23;20020;-82
2022/11/07 20:59:44;;;;;;;14.85;3.80;;;;;;;12.26;100.00;100840.53;12765395;23;20024;-82
2022/11/07 21:04:45;;;;;;;20.40;4.07;;;;;;;12.32;100.00;100861.56;12772853;23;20029;-81
2022/11/07 21:09:45;;;;;;;15.15;3.42;;;;;;;12.31;100.00;100868.16;12747192;23;20420;-81
2022/11/07 21:14:46;;;;;;;13.70;3.05;;;;;;;12.34;100.00;100853.00;12747058;23;20013;-81
2022/11/07 21:19:46;;;;;;;18.00;3.42;;;;;;;12.41;100.00;100866.56;12797236;23;20051;-82
2022/11/07 21:24:47;;;;;;;9.32;3.08;;;;;;;12.21;100.00;100817.56;12748163;23;20009;-80
2022/11/07 21:29:47;;;;;;;12.13;2.85;;;;;;;12.38;100.00;100858.81;12747426;23;20385;-81
2022/11/07 21:34:48;;;;;;;10.32;2.60;;;;;;;12.30;100.00;100863.75;12795658;23;20013;-82
2022/11/07 21:39:48;;;;;;;18.20;3.15;;;;;;;11.94;100.00;100809.41;12772808;23;20009;-82
2022/11/07 21:44:49;;;;;;;14.27;3.00;;;;;;;12.16;100.00;100847.91;12748045;23;20013;-82
2022/11/07 21:49:49;;;;;;;15.00;3.03;;;;;;;12.11;100.00;100848.69;12748265;23;20016;-81
2022/11/07 21:54:50;;;;;;;12.07;3.72;;;;;;;12.13;100.00;100871.34;12797275;23;20017;-81
2022/11/07 21:59:50;;;;;;;10.93;3.03;;;;;;;12.02;100.00;100844.78;12795587;23;20044;-80
2022/11/07 22:04:51;;;;;;;11.02;2.95;;;;;;;12.13;100.00;100868.56;12800043;23;20024;-81
2022/11/07 22:09:51;;;;;;;12.88;3.42;;;;;;;11.98;100.00;100862.97;12796656;23;20021;-81
2022/11/07 22:14:52;;;;;;;18.27;3.50;;;;;;;11.97;100.00;100869.56;12771210;23;20032;-82
2022/11/07 22:19:52;;;;;;;7.35;3.28;;;;;;;11.69;100.00;100843.94;12746728;23;20048;-81
2022/11/07 22:24:53;;;;;;;16.98;2.70;;;;;;;11.89;100.00;100880.00;12771951;23;20025;-82
2022/11/07 22:29:53;;;;;;;12.15;2.67;;;;;;;11.82;100.00;100879.34;12721608;23;20528;-82
2022/11/07 22:34:54;;;;;;;15.48;3.70;;;;;;;11.65;100.00;100851.88;12805904;23;20021;-82
2022/11/07 22:39:54;;;;;;;13.23;3.05;;;;;;;11.79;100.00;100868.03;12747114;23;20048;-81
2022/11/07 22:44:55;;;;;;;15.63;3.17;;;;;;;11.79;100.00;100862.50;12746452;23;20040;-81
2022/11/07 22:49:55;;;;;;;16.00;3.45;;;;;;;11.89;100.00;100865.38;12771791;23;20410;-80
2022/11/07 22:54:56;;;;;;;10.10;3.17;;;;;;;11.63;100.00;100817.41;12795775;23;20018;-81
2022/11/07 22:59:56;;;;;;;11.07;3.15;;;;;;;11.77;100.00;100859.19;12746560;23;20025;-78